Time;durP1;ratioP1;P1;durP2;ratioP2;P2;SDS_P1;SDS_P2;PMS_P1;PMS_P2;Temp;Humidity;BMP_temperature;BMP_pressure;BME280_temperature;BME280_humidity;BME280_pressure;Samples;Min_cycle;Max_cycle;Signal;HPM_P1;HPM_P2
2024/03/23 00:03:16;;;;;;;6.00;4.97;;;;;;;13.57;52.50;98100.63;6864008;28;20272;-83
2024/03/23 00:06:40;;;;;;;7.73;6.40;;;;;;;13.41;53.23;98101.41;6860633;28;20679;-83
2024/03/23 00:10:04;;;;;;;9.07;5.20;;;;;;;13.51;53.08;98095.38;6860507;28;20210;-83
2024/03/23 00:13:28;;;;;;;7.23;6.07;;;;;;;12.98;54.13;98095.59;6860081;28;20229;-83
2024/03/23 00:16:52;;;;;;;7.90;5.33;;;;;;;13.32;53.67;98092.00;6859228;28;20264;-84
2024/03/23 00:20:15;;;;;;;8.53;6.30;;;;;;;13.16;54.49;98073.81;6860444;28;20353;-83
2024/03/23 00:23:39;;;;;;;7.60;5.87;;;;;;;13.48;53.49;98074.19;6859899;28;20226;-83
2024/03/23 00:27:04;;;;;;;6.73;5.60;;;;;;;13.62;52.30;98075.56;6832675;28;20878;-84
2024/03/23 00:30:31;;;;;;;6.63;4.67;;;;;;;13.25;53.49;98058.00;6851665;28;20201;-83
2024/03/23 00:33:55;;;;;;;6.10;5.30;;;;;;;13.29;53.23;98056.47;6860147;28;20196;-84
2024/03/23 00:37:20;;;;;;;8.03;4.80;;;;;;;12.97;53.89;98055.25;6859195;28;20328;-83
2024/03/23 00:40:44;;;;;;;5.70;5.10;;;;;;;13.43;52.97;98057.81;6864451;28;20194;-84
2024/03/23 00:44:08;;;;;;;8.47;4.57;;;;;;;13.61;52.17;98044.09;6867143;28;20229;-84
2024/03/23 00:47:32;;;;;;;5.27;4.73;;;;;;;13.04;53.67;98039.72;6865697;28;20322;-84
2024/03/23 00:50:56;;;;;;;5.27;4.77;;;;;;;13.39;52.69;98041.25;6866057;28;20242;-84
2024/03/23 00:54:18;;;;;;;5.50;5.00;;;;;;;12.36;54.88;98031.44;6866361;28;20213;-84
2024/03/23 00:57:40;;;;;;;8.67;5.00;;;;;;;13.00;53.14;98006.91;6865469;28;20279;-84
2024/03/23 01:01:02;;;;;;;5.87;4.67;;;;;;;12.68;52.92;97900.16;6866623;28;20352;-84
2024/03/23 01:04:23;;;;;;;8.70;5.20;;;;;;;13.01;53.38;98005.84;6865561;28;20244;-84
2024/03/23 01:07:44;;;;;;;5.70;5.03;;;;;;;12.37;55.41;97997.09;6866547;28;20287;-84
2024/03/23 01:11:08;;;;;;;9.53;5.37;;;;;;;12.87;54.50;97990.91;6866465;28;20251;-84
2024/03/23 01:14:28;;;;;;;5.77;5.00;;;;;;;12.46;55.30;97991.09;6866026;28;20205;-84
2024/03/23 01:17:50;;;;;;;5.77;5.17;;;;;;;12.81;54.76;97993.75;6865200;28;20232;-84
2024/03/23 01:21:10;;;;;;;7.43;4.97;;;;;;;12.61;55.32;97986.03;6866080;28;20743;-84
2024/03/23 01:24:32;;;;;;;11.63;5.60;;;;;;;12.65;55.32;97994.47;6867381;28;20259;-83
2024/03/23 01:27:53;;;;;;;5.73;5.03;;;;;;;12.73;54.85;97980.56;6870633;28;20360;-84
2024/03/23 01:31:15;;;;;;;5.80;4.83;;;;;;;13.08;54.60;97975.91;6868745;28;20272;-83
2024/03/23 01:34:37;;;;;;;6.60;5.63;;;;;;;12.79;55.70;97961.53;6869101;28;20213;-84
2024/03/23 01:37:58;;;;;;;6.47;5.47;;;;;;;12.85;54.91;97954.31;6852092;28;20319;-84
2024/03/23 01:41:20;;;;;;;6.10;5.10;;;;;;;12.63;54.96;97927.09;6847435;28;20217;-84
2024/03/23 01:44:43;;;;;;;8.33;5.07;;;;;;;12.75;55.78;97964.97;6842204;28;20266;-83
2024/03/23 01:48:05;;;;;;;5.90;4.70;;;;;;;12.61;55.91;97952.75;6842391;28;20316;-84
2024/03/23 01:51:27;;;;;;;6.70;5.30;;;;;;;12.66;55.83;97945.56;6855290;28;20212;-84
2024/03/23 01:54:48;;;;;;;7.07;4.77;;;;;;;12.92;55.49;97939.59;6845311;28;20229;-83
2024/03/23 01:58:10;;;;;;;7.97;5.00;;;;;;;13.22;54.54;97934.00;6841340;28;20286;-84
2024/03/23 02:01:33;;;;;;;5.73;4.97;;;;;;;13.49;53.95;97922.31;6842504;28;20249;-83
2024/03/23 02:04:53;;;;;;;6.97;5.10;;;;;;;13.34;54.02;97918.50;6842506;28;20322;-84
2024/03/23 02:08:15;;;;;;;5.67;5.10;;;;;;;13.27;54.24;97928.69;6850637;28;20252;-84
2024/03/23 02:11:36;;;;;;;6.50;5.00;;;;;;;13.26;54.80;97908.06;6867340;28;20208;-83
2024/03/23 02:14:58;;;;;;;5.70;5.17;;;;;;;12.80;55.44;97892.03;6866540;28;20209;-84
2024/03/23 02:18:21;;;;;;;5.23;4.83;;;;;;;12.44;57.33;97895.91;6865267;28;20365;-83
2024/03/23 02:21:41;;;;;;;6.50;5.00;;;;;;;12.73;56.11;97875.09;6862358;28;20210;-84
2024/03/23 02:25:05;;;;;;;6.30;4.43;;;;;;;13.41;54.08;97883.97;6862682;28;20703;-82
2024/03/23 02:28:26;;;;;;;7.97;4.77;;;;;;;13.19;54.70;97888.44;6866358;28;20270;-84
2024/03/23 02:31:48;;;;;;;6.40;4.47;;;;;;;13.63;53.81;97882.19;6867856;28;20292;-83
2024/03/23 02:35:09;;;;;;;6.40;3.93;;;;;;;14.00;51.88;97788.44;6867791;28;20260;-84
2024/03/23 02:38:30;;;;;;;3.73;3.17;;;;;;;14.52;51.49;97868.31;6866419;28;20313;-84
2024/03/23 02:41:53;;;;;;;4.53;3.83;;;;;;;14.77;51.02;97864.00;6864436;28;20261;-84
2024/03/23 02:45:13;;;;;;;4.97;3.10;;;;;;;15.31;49.76;97871.09;6848412;28;20314;-84
2024/03/23 02:48:35;;;;;;;4.47;4.03;;;;;;;15.43;49.06;97862.78;6840923;28;20311;-84
2024/03/23 02:51:55;;;;;;;3.70;3.00;;;;;;;15.91;48.35;97868.03;6842167;28;20242;-84
2024/03/23 02:55:17;;;;;;;4.00;3.10;;;;;;;16.28;47.04;97861.50;6839494;28;20260;-85
2024/03/23 02:58:40;;;;;;;3.97;2.93;;;;;;;16.25;47.46;97856.59;6840366;28;20223;-84
2024/03/23 03:02:01;;;;;;;5.93;2.93;;;;;;;16.51;47.13;97855.66;6863928;28;20349;-84
2024/03/23 03:05:22;;;;;;;4.87;2.90;;;;;;;16.48;46.69;97852.66;6866492;28;20322;-84
2024/03/23 03:08:44;;;;;;;5.90;3.17;;;;;;;16.27;47.86;97848.19;6868011;28;20315;-83
2024/03/23 03:12:05;;;;;;;3.30;2.90;;;;;;;15.89;46.67;97712.56;6867536;28;20276;-84
2024/03/23 03:15:28;;;;;;;2.67;2.40;;;;;;;16.98;45.61;97831.06;6865906;28;20212;-85
2024/03/23 03:18:49;;;;;;;3.47;2.90;;;;;;;16.65;46.32;97823.31;6867184;28;20275;-86
2024/03/23 03:22:10;;;;;;;4.20;2.90;;;;;;;16.63;46.48;97826.31;6868180;28;20200;-84
2024/03/23 03:25:31;;;;;;;4.27;2.60;;;;;;;16.51;46.83;97820.28;6868557;28;20231;-84
2024/03/23 03:28:53;;;;;;;5.13;2.80;;;;;;;16.44;47.42;97817.00;6867808;28;20581;-84
2024/03/23 03:32:15;;;;;;;5.67;2.57;;;;;;;16.85;46.44;97818.75;6867673;28;20295;-84
2024/03/23 03:35:37;;;;;;;4.00;2.83;;;;;;;16.95;46.38;97817.97;6868895;28;20221;-84
2024/03/23 03:38:59;;;;;;;3.10;2.90;;;;;;;16.71;46.42;97798.59;6868740;28;20229;-83
2024/03/23 03:42:20;;;;;;;3.73;2.80;;;;;;;16.78;46.38;97799.16;6867559;28;20700;-84
2024/03/23 03:45:41;;;;;;;2.50;2.30;;;;;;;16.76;46.96;97795.06;6867624;28;20641;-84
2024/03/23 03:49:04;;;;;;;2.70;2.50;;;;;;;17.01;46.28;97803.25;6864669;28;20320;-84
2024/03/23 03:52:24;;;;;;;2.87;2.50;;;;;;;17.07;46.10;97804.91;6843205;28;20765;-84
2024/03/23 03:55:46;;;;;;;3.20;2.53;;;;;;;17.08;46.09;97792.91;6840709;28;20206;-84
2024/03/23 03:59:06;;;;;;;3.63;2.63;;;;;;;16.97;46.41;97789.38;6842507;28;20237;-84
2024/03/23 04:02:28;;;;;;;3.33;2.73;;;;;;;16.67;46.08;97723.16;6842321;28;20213;-84
2024/03/23 04:05:54;;;;;;;3.37;2.60;;;;;;;16.78;46.75;97758.31;6843846;28;20253;-85
2024/03/23 04:09:15;;;;;;;3.57;2.53;;;;;;;16.98;46.20;97750.16;6842349;28;20312;-83
2024/03/23 04:12:36;;;;;;;3.70;2.73;;;;;;;17.30;45.60;97733.56;6841314;28;20214;-83
2024/03/23 04:15:58;;;;;;;5.10;2.57;;;;;;;17.15;46.15;97730.84;6844511;28;20234;-84
2024/03/23 04:19:19;;;;;;;3.33;2.63;;;;;;;16.88;46.64;97731.09;6848132;28;20598;-84
2024/03/23 04:22:42;;;;;;;3.47;2.43;;;;;;;16.64;47.33;97723.72;6866951;28;20236;-84
2024/03/23 04:26:04;;;;;;;3.60;2.60;;;;;;;16.91;46.28;97707.94;6875086;28;20256;-84
2024/03/23 04:29:26;;;;;;;4.03;2.90;;;;;;;16.90;46.45;97698.16;6877512;28;20252;-84
2024/03/23 04:32:48;;;;;;;3.40;3.10;;;;;;;16.50;47.35;97692.66;6876659;28;20216;-84
2024/03/23 04:36:10;;;;;;;3.20;3.00;;;;;;;16.44;47.93;97700.00;6875348;28;20221;-84
2024/03/23 04:39:33;;;;;;;4.23;2.83;;;;;;;15.80;47.51;97581.00;6875689;28;20264;-85
2024/03/23 04:42:54;;;;;;;3.60;3.30;;;;;;;16.48;48.16;97698.38;6875795;28;20276;-84
2024/03/23 04:46:16;;;;;;;3.00;2.70;;;;;;;16.73;47.54;97714.75;6874433;28;20386;-84
2024/03/23 04:49:37;;;;;;;2.83;2.53;;;;;;;16.43;48.03;97763.66;6875822;28;20241;-85
2024/03/23 04:52:59;;;;;;;3.93;3.00;;;;;;;16.36;50.16;97762.25;6875558;28;20228;-84
2024/03/23 04:56:22;;;;;;;5.20;3.73;;;;;;;16.35;50.99;97760.63;6874167;28;20298;-84
2024/03/23 04:59:43;;;;;;;5.20;3.40;;;;;;;15.84;53.73;97785.91;6875106;28;20212;-85
2024/03/23 05:03:05;;;;;;;4.20;3.80;;;;;;;15.94;54.24;97799.59;6879579;28;20621;-85
2024/03/23 05:06:25;;;;;;;6.27;4.63;;;;;;;15.93;54.84;97784.34;6879976;28;20212;-85
2024/03/23 05:09:48;;;;;;;4.70;4.30;;;;;;;15.88;55.36;97796.03;6878136;28;20205;-84
2024/03/23 05:13:10;;;;;;;7.07;5.57;;;;;;;15.99;56.32;97810.50;6877929;28;20616;-84
2024/03/23 05:16:32;;;;;;;9.50;6.60;;;;;;;15.89;57.27;97805.81;6864168;28;20591;-83
2024/03/23 05:19:52;;;;;;;11.17;7.87;;;;;;;15.98;57.61;97811.56;6876207;28;20291;-83
2024/03/23 05:23:14;;;;;;;9.20;8.17;;;;;;;15.74;58.20;97821.22;6880249;28;20215;-84
2024/03/23 05:26:35;;;;;;;10.13;8.20;;;;;;;15.60;58.96;97826.28;6879084;28;20295;-84
2024/03/23 05:29:58;;;;;;;11.57;9.83;;;;;;;15.58;58.89;97811.31;6879298;28;20209;-84
2024/03/23 05:33:19;;;;;;;13.33;10.20;;;;;;;15.26;59.40;97815.88;6875389;28;20218;-84
2024/03/23 05:36:40;;;;;;;16.00;11.60;;;;;;;15.06;59.91;97823.84;6851807;28;20238;-84
2024/03/23 05:40:02;;;;;;;15.10;11.00;;;;;;;15.04;60.02;97826.81;6853871;28;20216;-84
2024/03/23 05:43:23;;;;;;;14.40;12.20;;;;;;;15.10;59.29;97847.50;6852869;28;20330;-87
2024/03/23 05:46:48;;;;;;;16.73;12.20;;;;;;;15.35;58.87;97828.78;6851709;28;20286;-84
2024/03/23 05:50:12;;;;;;;14.70;12.87;;;;;;;14.88;58.63;97840.50;6868987;28;20207;-85
2024/03/23 05:53:34;;;;;;;17.70;11.77;;;;;;;14.88;59.50;97870.38;6858183;28;20208;-86
2024/03/23 05:56:54;;;;;;;15.60;12.73;;;;;;;14.96;59.21;97883.47;6852891;28;20228;-85
2024/03/23 06:00:16;;;;;;;15.07;12.43;;;;;;;15.23;58.35;97897.88;6854731;28;20212;-85
2024/03/23 06:03:38;;;;;;;16.87;12.27;;;;;;;15.16;58.69;97884.50;6855113;28;20227;-84
2024/03/23 06:07:00;;;;;;;16.03;11.87;;;;;;;14.99;59.06;97901.97;6863165;28;20239;-85
2024/03/23 06:10:21;;;;;;;13.80;11.90;;;;;;;15.08;59.04;97881.41;6853953;28;20204;-84
2024/03/23 06:13:43;;;;;;;14.67;11.33;;;;;;;15.28;58.26;97885.16;6853993;28;20235;-84
2024/03/23 06:17:05;;;;;;;8.37;6.80;;;;;;;14.60;57.07;97914.81;6854252;28;20236;-84
2024/03/23 06:20:28;;;;;;;7.60;6.33;;;;;;;14.56;56.54;97918.25;6855636;28;20214;-84
2024/03/23 06:23:52;;;;;;;5.43;4.60;;;;;;;14.43;55.67;97913.19;6854881;28;20315;-84
2024/03/23 06:27:13;;;;;;;4.63;3.97;;;;;;;14.53;55.60;97916.06;6872621;28;20225;-85
2024/03/23 06:30:35;;;;;;;4.50;3.50;;;;;;;14.19;55.55;97912.63;6861027;28;20207;-84
2024/03/23 06:33:55;;;;;;;4.13;3.50;;;;;;;13.87;56.01;97914.25;6857649;28;20239;-86
2024/03/23 06:37:18;;;;;;;3.17;2.87;;;;;;;13.87;56.33;97932.41;6852670;28;20254;-84
2024/03/23 06:40:40;;;;;;;3.03;2.83;;;;;;;14.09;55.37;97907.00;6855156;28;20202;-84
2024/03/23 06:44:01;;;;;;;3.77;3.00;;;;;;;14.18;55.46;97943.47;6854882;28;20255;-84
2024/03/23 06:47:22;;;;;;;3.20;2.90;;;;;;;13.86;55.65;97953.25;6857435;28;20234;-85
2024/03/23 06:50:43;;;;;;;2.90;2.60;;;;;;;14.02;54.17;97963.28;6881257;28;20208;-85
2024/03/23 06:54:05;;;;;;;3.10;2.77;;;;;;;14.18;54.58;97977.88;6880441;28;20210;-84
2024/03/23 06:57:27;;;;;;;2.67;2.47;;;;;;;14.09;54.31;97961.22;6858470;28;20265;-84
2024/03/23 07:00:48;;;;;;;2.40;2.20;;;;;;;13.81;55.02;98022.81;6856361;28;20225;-84
2024/03/23 07:04:10;;;;;;;2.80;2.20;;;;;;;13.76;55.39;98026.22;6842146;28;20363;-84
2024/03/23 07:07:31;;;;;;;2.27;2.17;;;;;;;13.16;56.39;98025.09;6860106;28;20373;-84
2024/03/23 07:10:54;;;;;;;2.10;2.00;;;;;;;13.49;55.95;98041.44;6865126;28;20244;-84
2024/03/23 07:14:16;;;;;;;1.73;1.63;;;;;;;13.29;56.29;98051.88;6870152;28;20237;-86
2024/03/23 07:17:37;;;;;;;1.70;1.60;;;;;;;13.43;56.00;98044.28;6863734;28;20964;-83
2024/03/23 07:20:58;;;;;;;1.93;1.83;;;;;;;13.27;56.48;98032.34;6868047;28;20292;-84
2024/03/23 07:24:20;;;;;;;1.83;1.73;;;;;;;13.37;56.14;98062.34;6878929;28;20372;-84
2024/03/23 07:27:43;;;;;;;1.80;1.70;;;;;;;12.90;55.69;97965.25;6863097;28;20265;-84
2024/03/23 07:31:04;;;;;;;2.67;1.90;;;;;;;13.69;54.92;98049.13;6874354;28;20214;-84
2024/03/23 07:38:05;;;;;;;1.70;1.60;;;;;;;13.72;55.26;98062.19;6861560;28;20312;-84
2024/03/23 07:41:27;;;;;;;1.90;1.80;;;;;;;13.88;54.78;98075.78;6864554;28;20320;-84
2024/03/23 07:44:50;;;;;;;1.80;1.70;;;;;;;13.59;55.68;98067.91;6865384;28;20243;-84
2024/03/23 07:48:12;;;;;;;1.90;1.80;;;;;;;13.33;55.71;98072.00;6864888;28;20250;-84
2024/03/23 07:51:34;;;;;;;1.90;1.80;;;;;;;13.20;56.31;98103.91;6869745;28;20588;-84
2024/03/23 07:54:56;;;;;;;1.90;1.67;;;;;;;13.08;56.34;98101.25;6870362;28;20657;-85
2024/03/23 07:58:16;;;;;;;1.80;1.70;;;;;;;13.44;55.51;98098.22;6848102;28;20367;-86
2024/03/23 08:01:39;;;;;;;1.50;1.50;;;;;;;12.92;56.32;98123.56;6847381;28;20210;-84
2024/03/23 08:05:01;;;;;;;1.50;1.50;;;;;;;13.45;55.50;98131.53;6843047;28;20332;-86
2024/03/23 08:08:21;;;;;;;2.47;1.67;;;;;;;12.93;56.49;98105.47;6843652;28;20233;-84
2024/03/23 08:11:45;;;;;;;1.40;1.40;;;;;;;12.92;56.67;98139.00;6870999;28;20218;-84
2024/03/23 08:15:10;;;;;;;1.60;1.50;;;;;;;12.76;57.36;98145.09;6868911;28;20684;-83
2024/03/23 08:18:33;;;;;;;1.40;1.40;;;;;;;13.04;57.40;98180.44;6875017;28;20229;-84
2024/03/23 08:21:54;;;;;;;1.40;1.40;;;;;;;12.36;59.58;98181.97;6873171;28;20268;-85
2024/03/23 08:25:16;;;;;;;1.83;1.73;;;;;;;12.71;59.59;98175.56;6868775;28;20291;-85
2024/03/23 08:28:38;;;;;;;1.60;1.60;;;;;;;13.44;58.03;98167.78;6870275;28;20293;-85
2024/03/23 08:32:00;;;;;;;1.50;1.40;;;;;;;13.77;54.80;98211.28;6869936;28;20214;-84
2024/03/23 08:35:23;;;;;;;1.63;1.50;;;;;;;12.96;55.26;98219.50;6885198;28;20224;-85
2024/03/23 08:38:45;;;;;;;1.70;1.60;;;;;;;12.68;56.07;98218.50;6890700;28;20238;-85
2024/03/23 08:42:06;;;;;;;1.40;1.40;;;;;;;12.59;55.79;98217.16;6871170;28;20221;-86
2024/03/23 08:45:27;;;;;;;1.80;1.70;;;;;;;12.87;55.34;98253.31;6864645;28;20280;-85
2024/03/23 08:48:48;;;;;;;3.13;1.90;;;;;;;12.53;55.07;98278.41;6867525;28;20319;-84
2024/03/23 08:52:11;;;;;;;1.90;1.80;;;;;;;12.26;53.37;98163.59;6884638;28;20262;-84
2024/03/23 08:55:32;;;;;;;2.43;2.23;;;;;;;13.37;52.48;98254.56;6890257;28;20625;-83
2024/03/23 08:58:56;;;;;;;3.23;2.40;;;;;;;13.56;52.08;98274.22;6880997;28;20240;-86
2024/03/23 09:02:17;;;;;;;2.23;2.00;;;;;;;13.38;50.46;98296.00;6922609;22;20311;-84
2024/03/23 09:05:40;;;;;;;3.67;2.20;;;;;;;13.22;50.92;98311.06;6918365;28;20659;-85
2024/03/23 09:09:03;;;;;;;3.93;2.20;;;;;;;13.39;52.09;98325.56;6895993;28;20367;-85
2024/03/23 09:12:25;;;;;;;2.73;2.43;;;;;;;13.13;52.23;98323.31;6891045;28;20284;-85
2024/03/23 09:15:47;;;;;;;3.20;2.40;;;;;;;13.09;52.87;98324.81;6891324;28;20243;-85
2024/03/23 09:19:09;;;;;;;4.33;2.70;;;;;;;12.80;53.47;98327.53;6890913;28;20373;-85
2024/03/23 09:22:30;;;;;;;4.23;2.63;;;;;;;13.04;53.60;98369.88;6891101;28;20210;-85
2024/03/23 09:25:53;;;;;;;5.33;2.30;;;;;;;13.01;53.08;98354.09;6890896;28;20268;-85
2024/03/23 09:29:16;;;;;;;2.57;2.37;;;;;;;12.99;51.72;98339.97;6891300;28;20325;-85
2024/03/23 09:32:36;;;;;;;4.83;2.90;;;;;;;13.09;51.79;98360.00;6891739;28;20364;-85
2024/03/23 09:35:58;;;;;;;3.70;2.80;;;;;;;12.54;52.24;98350.38;6891473;28;20211;-84
2024/03/23 09:39:20;;;;;;;6.00;2.90;;;;;;;13.12;50.19;98339.75;6892362;28;20331;-84
2024/03/23 09:42:46;;;;;;;6.73;3.77;;;;;;;13.49;48.33;98338.50;6892363;28;20220;-85
2024/03/23 09:46:08;;;;;;;9.93;4.47;;;;;;;13.22;47.63;98343.53;6890891;28;20232;-84
2024/03/23 09:49:29;;;;;;;6.30;3.00;;;;;;;13.70;46.28;98335.22;6892068;28;20751;-84
2024/03/23 09:52:51;;;;;;;5.80;3.63;;;;;;;13.41;45.14;98326.16;6891921;28;20753;-84
2024/03/23 09:56:12;;;;;;;5.10;3.50;;;;;;;13.54;44.71;98323.22;6890928;28;20347;-87
2024/03/23 09:59:36;;;;;;;6.27;3.10;;;;;;;13.88;44.48;98306.13;6890912;28;20366;-84
2024/03/23 10:03:01;;;;;;;7.20;3.57;;;;;;;13.76;43.80;98271.97;6891861;28;20581;-84
2024/03/23 10:06:22;;;;;;;8.47;3.67;;;;;;;13.79;44.30;98334.63;6891393;28;20228;-83
2024/03/23 10:09:47;;;;;;;6.50;3.00;;;;;;;13.36;44.51;98315.22;6892299;28;20245;-83
2024/03/23 10:13:23;;;;;;;5.87;3.50;;;;;;;13.61;44.16;98331.22;6890316;28;20219;-84
2024/03/23 10:16:46;;;;;;;4.70;3.20;;;;;;;13.64;44.47;98333.47;6888548;28;20242;-85
2024/03/23 10:20:11;;;;;;;5.37;3.10;;;;;;;13.70;45.51;98322.47;6891745;28;20208;-83
2024/03/23 10:23:32;;;;;;;5.80;3.40;;;;;;;13.58;44.60;98323.56;6891484;28;20209;-83
2024/03/23 10:26:57;;;;;;;5.93;3.73;;;;;;;14.18;44.34;98295.91;6890501;28;20237;-83
2024/03/23 10:30:19;;;;;;;6.33;3.97;;;;;;;13.98;44.95;98319.06;6892753;28;20207;-83
2024/03/23 10:33:49;;;;;;;7.53;3.90;;;;;;;14.15;44.40;98304.50;6866037;28;20210;-82
2024/03/23 10:37:11;;;;;;;8.87;3.60;;;;;;;14.74;43.52;98309.50;6862707;28;20238;-84
2024/03/23 10:40:34;;;;;;;8.13;3.67;;;;;;;15.65;42.07;98299.16;6863958;28;20216;-82
2024/03/23 10:43:57;;;;;;;9.33;3.73;;;;;;;15.29;42.31;98301.53;6862857;28;20200;-80
2024/03/23 10:47:18;;;;;;;5.93;3.70;;;;;;;15.09;42.42;98283.00;6867590;28;20260;-83
2024/03/23 10:50:41;;;;;;;6.17;3.33;;;;;;;14.70;42.48;98305.63;6889054;28;20241;-83
2024/03/23 10:54:05;;;;;;;8.07;3.20;;;;;;;14.53;42.33;98287.69;6888714;28;20211;-81
2024/03/23 10:57:31;;;;;;;8.30;3.80;;;;;;;14.93;42.09;98304.72;6887515;28;20225;-82
2024/03/23 11:00:54;;;;;;;6.83;3.70;;;;;;;14.39;41.71;98297.19;6882958;28;20240;-83
2024/03/23 11:04:29;;;;;;;6.13;3.87;;;;;;;13.52;43.30;98303.66;6869439;28;20209;-83
2024/03/23 11:07:52;;;;;;;6.53;3.70;;;;;;;13.42;46.61;98395.50;6887070;28;20232;-82
2024/03/23 11:11:14;;;;;;;9.33;3.77;;;;;;;10.57;54.14;98428.94;6865689;28;20237;-82
2024/03/23 11:14:36;;;;;;;8.03;4.20;;;;;;;10.12;57.55;98441.53;6863821;28;20212;-82
2024/03/23 11:18:04;;;;;;;10.17;5.37;;;;;;;10.71;57.57;98395.50;6888069;28;20662;-82
2024/03/23 11:21:53;;;;;;;6.67;4.57;;;;;;;10.68;58.22;98445.28;6888383;28;20208;-83
2024/03/23 11:25:21;;;;;;;5.73;4.23;;;;;;;10.49;58.94;98440.78;6887952;28;20225;-83
2024/03/23 11:28:42;;;;;;;5.10;4.07;;;;;;;11.31;57.62;98413.75;6888447;28;20231;-82
2024/03/23 11:32:05;;;;;;;5.07;3.90;;;;;;;11.41;58.14;98387.97;6888389;28;20293;-83
2024/03/23 11:35:30;;;;;;;5.00;3.87;;;;;;;11.73;56.21;98373.34;6889917;28;20255;-82
2024/03/23 11:38:52;;;;;;;4.23;3.40;;;;;;;11.95;56.22;98396.19;6891466;28;20247;-82
2024/03/23 11:42:15;;;;;;;5.73;4.10;;;;;;;12.55;56.94;98405.25;6891414;28;20248;-83
2024/03/23 11:45:37;;;;;;;4.90;3.17;;;;;;;12.86;53.92;98391.56;6892499;28;20232;-83
2024/03/23 11:48:59;;;;;;;5.63;3.43;;;;;;;12.95;54.60;98390.16;6891698;28;20248;-83
2024/03/23 11:52:20;;;;;;;4.20;3.50;;;;;;;12.56;55.04;98375.28;6893078;28;20258;-83
2024/03/23 11:55:48;;;;;;;4.87;3.57;;;;;;;13.38;55.00;98372.66;6902926;28;20204;-83
2024/03/23 11:59:35;;;;;;;4.90;3.40;;;;;;;12.93;54.95;98384.16;6901464;28;20258;-83
2024/03/23 12:03:11;;;;;;;4.20;3.57;;;;;;;13.51;54.36;98385.97;6888644;28;20275;-86
2024/03/23 12:06:31;;;;;;;5.30;2.97;;;;;;;13.57;52.47;98376.09;6887774;28;20356;-85
2024/03/23 12:13:46;;;;;;;4.20;2.80;;;;;;;14.17;51.79;98364.72;6887451;28;20216;-86
2024/03/23 12:17:15;;;;;;;5.50;2.60;;;;;;;13.44;48.95;98358.19;6886446;28;20257;-85
2024/03/23 12:20:39;;;;;;;4.70;2.70;;;;;;;13.38;51.00;98340.16;6886903;28;20262;-86
2024/03/23 12:24:00;;;;;;;6.23;2.77;;;;;;;13.02;49.69;98307.03;6887565;28;20680;-86
2024/03/23 12:27:22;;;;;;;5.63;2.73;;;;;;;13.12;48.65;98374.94;6885715;28;20272;-83
2024/03/23 12:30:43;;;;;;;3.83;2.50;;;;;;;12.86;50.25;98361.78;6861994;28;20213;-82
2024/03/23 12:34:06;;;;;;;4.93;2.33;;;;;;;13.11;48.58;98374.09;6862604;28;20314;-83
2024/03/23 12:37:28;;;;;;;5.30;2.70;;;;;;;13.09;48.13;98349.16;6867828;28;20674;-82
2024/03/23 12:40:50;;;;;;;4.57;2.60;;;;;;;13.30;46.15;98334.25;6895029;28;20356;-83
2024/03/23 12:44:11;;;;;;;6.33;2.60;;;;;;;13.91;46.37;98359.00;6895316;28;20209;-83
2024/03/23 12:47:34;;;;;;;7.67;3.30;;;;;;;13.84;45.20;98344.75;6864864;28;20239;-83
2024/03/23 12:50:57;;;;;;;6.73;2.90;;;;;;;13.77;45.28;98354.88;6866592;28;20269;-82
2024/03/23 12:54:18;;;;;;;6.20;3.40;;;;;;;13.56;44.90;98344.63;6867625;28;20648;-82
2024/03/23 12:57:40;;;;;;;5.67;2.90;;;;;;;13.89;45.33;98329.44;6866603;28;21150;-83
2024/03/23 13:01:02;;;;;;;4.63;2.40;;;;;;;13.67;44.33;98314.00;6866279;28;20251;-83
2024/03/23 13:04:24;;;;;;;4.37;2.80;;;;;;;12.88;44.53;98335.31;6864920;28;20727;-84
2024/03/23 13:07:46;;;;;;;7.70;3.10;;;;;;;13.27;44.15;98340.97;6874845;28;20251;-84
2024/03/23 13:11:08;;;;;;;5.60;2.97;;;;;;;13.63;43.69;98353.50;6884602;28;20201;-84
2024/03/23 13:14:30;;;;;;;5.57;3.30;;;;;;;13.64;43.75;98330.75;6894346;28;20207;-83
2024/03/23 13:17:52;;;;;;;7.30;2.60;;;;;;;14.42;44.23;98326.50;6893247;28;20330;-83
2024/03/23 13:21:12;;;;;;;7.57;2.20;;;;;;;15.04;40.98;98323.63;6893650;28;20217;-83
2024/03/23 13:24:36;;;;;;;5.00;2.43;;;;;;;14.83;40.03;98310.78;6894341;28;20217;-83
2024/03/23 13:27:56;;;;;;;6.07;2.90;;;;;;;14.96;39.62;98294.19;6894895;28;20230;-83
2024/03/23 13:31:18;;;;;;;5.57;2.80;;;;;;;15.38;39.44;98300.88;6894793;28;20215;-83
2024/03/23 13:34:40;;;;;;;6.07;3.17;;;;;;;15.31;39.99;98312.94;6893487;28;20687;-82
2024/03/23 13:38:01;;;;;;;7.90;2.93;;;;;;;15.42;38.95;98287.63;6893712;28;20734;-83
2024/03/23 13:41:24;;;;;;;6.00;2.70;;;;;;;15.04;39.69;98287.53;6893255;28;20676;-83
2024/03/23 14:27:41;;;;;;;4.20;2.73;;;;;;;10.08;55.60;98351.41;6888719;28;20712;-84
2024/03/23 14:31:07;;;;;;;4.30;2.50;;;;;;;9.86;59.58;98371.53;6888253;28;20306;-84
2024/03/23 14:34:29;;;;;;;3.60;2.47;;;;;;;9.68;61.34;98381.34;6888522;28;20207;-84
2024/03/23 14:37:50;;;;;;;2.40;2.20;;;;;;;9.69;61.25;98378.41;6888127;28;20231;-83
2024/03/23 14:41:12;;;;;;;2.97;2.30;;;;;;;10.31;60.84;98364.38;6888794;28;20898;-87
2024/03/23 14:44:37;;;;;;;2.93;2.50;;;;;;;10.04;59.97;98333.22;6888967;28;20286;-86
2024/03/23 14:48:00;;;;;;;3.67;2.40;;;;;;;11.45;58.42;98321.66;6888033;28;20267;-85
2024/03/23 14:51:21;;;;;;;3.80;2.13;;;;;;;12.17;56.46;98318.22;6885561;28;21572;-88
2024/03/23 14:54:43;;;;;;;3.30;2.60;;;;;;;11.80;55.85;98314.69;6862088;28;20716;-85
2024/03/23 14:58:04;;;;;;;2.47;2.27;;;;;;;11.93;55.70;98327.22;6861181;28;20260;-86
2024/03/23 15:01:28;;;;;;;2.50;2.30;;;;;;;12.02;54.35;98309.66;6881064;28;20615;-84
2024/03/23 15:04:48;;;;;;;2.63;2.37;;;;;;;12.21;54.82;98317.53;6888629;28;20247;-87
2024/03/23 15:08:11;;;;;;;624.40;328.53;;;;;;;12.41;53.44;98304.59;6887071;28;20236;-86
2024/03/23 15:11:35;;;;;;;22.80;10.03;;;;;;;12.10;53.43;98293.16;6887968;28;20201;-85
2024/03/23 15:14:56;;;;;;;132.13;72.23;;;;;;;12.39;53.52;98328.31;6887670;28;20208;-86
2024/03/23 15:18:25;;;;;;;95.40;50.30;;;;;;;12.55;52.83;98316.03;6888109;28;20228;-85
2024/03/23 15:21:47;;;;;;;3.53;2.93;;;;;;;12.35;53.66;98329.00;6888658;28;20215;-82
2024/03/23 15:25:12;;;;;;;4.60;2.97;;;;;;;12.62;52.12;98292.44;6888154;28;20662;-85
2024/03/23 15:28:38;;;;;;;2.80;2.30;;;;;;;13.16;50.61;98312.00;6887293;28;20719;-85
2024/03/23 15:32:01;;;;;;;3.67;2.40;;;;;;;12.56;49.47;98310.41;6888281;28;20216;-85
2024/03/23 15:35:24;;;;;;;2.70;2.07;;;;;;;12.14;50.74;98313.25;6887440;28;20217;-85
2024/03/23 15:38:46;;;;;;;3.30;2.00;;;;;;;12.51;49.30;98277.81;6884968;28;20262;-83
2024/03/23 15:42:08;;;;;;;3.03;2.13;;;;;;;12.46;49.67;98239.00;6888672;28;20585;-85
2024/03/23 15:45:29;;;;;;;4.73;2.60;;;;;;;12.67;48.51;98281.72;6888482;28;20692;-84
2024/03/23 15:48:50;;;;;;;3.30;2.23;;;;;;;12.82;48.58;98288.38;6886899;28;20263;-85
2024/03/23 15:52:13;;;;;;;1.80;1.70;;;;;;;12.72;47.90;98293.53;6887687;28;20718;-83
2024/03/23 15:55:35;;;;;;;3.50;3.10;;;;;;;12.78;46.96;98298.00;6889124;28;20204;-83
2024/03/23 15:59:02;;;;;;;6.63;3.80;;;;;;;13.63;46.97;98288.47;6888279;28;20778;-84
2024/03/23 16:02:24;;;;;;;2.83;2.10;;;;;;;13.80;45.33;98282.09;6890504;28;20201;-84
2024/03/23 16:05:50;;;;;;;4.00;2.00;;;;;;;14.22;44.94;98294.38;6888644;28;20270;-82
2024/03/23 16:09:14;;;;;;;2.20;2.00;;;;;;;14.22;44.69;98272.69;6888558;28;20225;-84
2024/03/23 16:12:35;;;;;;;5.73;2.30;;;;;;;13.89;46.11;98261.69;6899036;28;20213;-84
2024/03/23 16:15:57;;;;;;;5.37;3.30;;;;;;;14.13;43.87;98273.28;6896930;28;20216;-83
2024/03/23 16:19:17;;;;;;;5.37;2.40;;;;;;;13.62;44.34;98202.88;6896871;28;20316;-82
2024/03/23 16:22:39;;;;;;;2.80;2.40;;;;;;;13.85;44.06;98260.50;6886711;28;20266;-82
2024/03/23 16:26:02;;;;;;;4.87;2.40;;;;;;;13.97;42.66;98265.91;6868199;28;20242;-84
2024/03/23 16:29:23;;;;;;;2.20;1.97;;;;;;;13.84;43.15;98239.06;6868539;28;20275;-85
2024/03/23 16:32:46;;;;;;;3.27;1.70;;;;;;;13.66;43.10;98231.94;6867644;28;20216;-83
2024/03/23 16:36:08;;;;;;;6.30;3.80;;;;;;;13.11;43.54;98237.97;6867398;28;20624;-84
2024/03/23 16:39:31;;;;;;;5.07;1.73;;;;;;;13.04;42.31;98248.09;6867570;28;20601;-84
2024/03/23 16:42:53;;;;;;;5.73;2.40;;;;;;;12.27;44.11;98286.06;6867970;28;20371;-84